This is the latest recevied weather packets stored in our database for station/object VE1UHF-4. If no packets are shown the sender has not sent any weather packets the latest 10 day(s).
| Time | Temp. | Humidity | Pressure | Rain* | Wind** | Luminosity | Snow |
|---|---|---|---|---|---|---|---|
| 1777586381 | 16.67° C | 66% | 1008.8 hPa | 0 mm | - | - | - |
| 1777585480 | 16.67° C | 66% | 1008.7 hPa | 0 mm | - | - | - |
| 1777584580 | 16.67° C | 66% | 1008.7 hPa | 0 mm | - | - | - |
| 1777583679 | 17.22° C | 66% | 1008.9 hPa | 0 mm | - | - | - |
| 1777582779 | 17.22° C | 67% | 1009 hPa | 0 mm | - | - | - |
| 1777581878 | 17.22° C | 68% | 1009 hPa | 0 mm | - | - | - |
| 1777580978 | 17.78° C | 68% | 1009.2 hPa | 0 mm | - | - | - |
| 1777580077 | 17.78° C | 68% | 1009.1 hPa | 0 mm | - | - | - |
| 1777579178 | 17.78° C | 68% | 1009.1 hPa | 0 mm | - | - | - |
| 1777578276 | 17.78° C | 70% | 1009.2 hPa | 0 mm | - | - | - |
| 1777577375 | 17.78° C | 70% | 1009.1 hPa | 0 mm | - | - | - |
| 1777576475 | 17.78° C | 71% | 1008.9 hPa | 0 mm | - | - | - |
| 1777574674 | 17.22° C | 72% | 1009.5 hPa | 0 mm | - | - | - |
| 1777572873 | 16.67° C | 71% | 1009.9 hPa | 0 mm | - | - | - |
| 1777571975 | 16.67° C | 70% | 1010.1 hPa | 0 mm | - | - | - |
| 1777571072 | 16.67° C | 72% | 1010.2 hPa | 0 mm | - | - | - |
| 1777569271 | 16.11° C | 73% | 1010.4 hPa | 0 mm | - | - | - |
| 1777567470 | 15° C | 75% | 1010.7 hPa | 0 mm | - | - | - |
| 1777565668 | 13.89° C | 75% | 1011.1 hPa | 0 mm | - | - | - |
| 1777564770 | 13.33° C | 75% | 1011.2 hPa | 0 mm | - | - | - |
| 1777563867 | 12.78° C | 75% | 1011.2 hPa | 0 mm | - | - | - |
| 1777562067 | 12.22° C | 73% | 1011.5 hPa | 0 mm | - | - | - |
| 1777561166 | 11.67° C | 74% | 1011.7 hPa | 0 mm | - | - | - |
| 1777559365 | 11.11° C | 73% | 1011.9 hPa | 0 mm | - | - | - |
| 1777558464 | 10.56° C | 74% | 1012.1 hPa | 0 mm | - | - | - |
* Rain since midnight (hover to see other rain measurements)
** Current wind speed in m/s (hover to see current wind gust speed)